sensor_id;sensor_type;location;lat;lon;timestamp;P1;durP1;ratioP1;P2;durP2;ratioP2
1593;SDS011;790;47.000;16.084;2023-02-15T00:01:07;29.30;;;18.80;;
1593;SDS011;790;47.000;16.084;2023-02-15T00:03:34;31.83;;;19.40;;
1593;SDS011;790;47.000;16.084;2023-02-15T00:06:02;28.43;;;18.87;;
1593;SDS011;790;47.000;16.084;2023-02-15T00:08:30;30.57;;;19.13;;
1593;SDS011;790;47.000;16.084;2023-02-15T00:11:04;32.43;;;18.97;;
1593;SDS011;790;47.000;16.084;2023-02-15T00:13:34;30.80;;;19.03;;
1593;SDS011;790;47.000;16.084;2023-02-15T00:16:02;30.73;;;19.20;;
1593;SDS011;790;47.000;16.084;2023-02-15T00:18:30;29.40;;;19.03;;
1593;SDS011;790;47.000;16.084;2023-02-15T00:20:58;31.13;;;19.63;;
1593;SDS011;790;47.000;16.084;2023-02-15T00:23:29;31.00;;;19.93;;
1593;SDS011;790;47.000;16.084;2023-02-15T00:26:02;29.83;;;19.37;;
1593;SDS011;790;47.000;16.084;2023-02-15T00:28:31;33.37;;;20.00;;
1593;SDS011;790;47.000;16.084;2023-02-15T00:31:06;28.27;;;18.33;;
1593;SDS011;790;47.000;16.084;2023-02-15T00:33:35;31.10;;;19.43;;
1593;SDS011;790;47.000;16.084;2023-02-15T00:36:03;32.77;;;19.87;;
1593;SDS011;790;47.000;16.084;2023-02-15T00:38:31;29.87;;;19.37;;
1593;SDS011;790;47.000;16.084;2023-02-15T00:41:00;29.33;;;19.73;;
1593;SDS011;790;47.000;16.084;2023-02-15T00:43:28;28.73;;;18.83;;
1593;SDS011;790;47.000;16.084;2023-02-15T00:45:57;29.73;;;18.53;;
1593;SDS011;790;47.000;16.084;2023-02-15T00:48:26;28.10;;;18.70;;
1593;SDS011;790;47.000;16.084;2023-02-15T00:50:54;28.73;;;18.87;;
1593;SDS011;790;47.000;16.084;2023-02-15T00:53:23;30.10;;;19.23;;
1593;SDS011;790;47.000;16.084;2023-02-15T00:55:50;33.73;;;20.77;;
1593;SDS011;790;47.000;16.084;2023-02-15T00:58:17;30.37;;;19.57;;
1593;SDS011;790;47.000;16.084;2023-02-15T01:00:44;34.40;;;19.70;;
1593;SDS011;790;47.000;16.084;2023-02-15T01:03:13;35.43;;;20.67;;
1593;SDS011;790;47.000;16.084;2023-02-15T01:05:47;33.67;;;21.13;;
1593;SDS011;790;47.000;16.084;2023-02-15T01:08:17;30.27;;;19.13;;
1593;SDS011;790;47.000;16.084;2023-02-15T01:10:44;33.80;;;22.17;;
1593;SDS011;790;47.000;16.084;2023-02-15T01:13:13;32.93;;;20.83;;
1593;SDS011;790;47.000;16.084;2023-02-15T01:15:41;34.40;;;20.97;;
1593;SDS011;790;47.000;16.084;2023-02-15T01:18:08;32.40;;;21.60;;
1593;SDS011;790;47.000;16.084;2023-02-15T01:20:36;36.90;;;22.07;;
1593;SDS011;790;47.000;16.084;2023-02-15T01:23:08;31.87;;;20.23;;
1593;SDS011;790;47.000;16.084;2023-02-15T01:25:35;36.57;;;22.03;;
1593;SDS011;790;47.000;16.084;2023-02-15T01:28:03;35.97;;;21.73;;
1593;SDS011;790;47.000;16.084;2023-02-15T01:30:30;33.20;;;21.17;;
1593;SDS011;790;47.000;16.084;2023-02-15T01:32:58;31.23;;;20.20;;
1593;SDS011;790;47.000;16.084;2023-02-15T01:35:26;32.73;;;19.47;;
1593;SDS011;790;47.000;16.084;2023-02-15T01:37:54;36.83;;;22.40;;
1593;SDS011;790;47.000;16.084;2023-02-15T01:40:23;31.77;;;20.60;;
1593;SDS011;790;47.000;16.084;2023-02-15T01:42:51;33.30;;;19.97;;
1593;SDS011;790;47.000;16.084;2023-02-15T01:45:20;26.67;;;18.40;;
1593;SDS011;790;47.000;16.084;2023-02-15T01:47:50;31.77;;;19.40;;
1593;SDS011;790;47.000;16.084;2023-02-15T01:50:21;29.93;;;19.67;;
1593;SDS011;790;47.000;16.084;2023-02-15T01:52:53;30.90;;;20.00;;
1593;SDS011;790;47.000;16.084;2023-02-15T01:55:26;31.00;;;20.43;;
1593;SDS011;790;47.000;16.084;2023-02-15T01:57:56;32.27;;;20.03;;
1593;SDS011;790;47.000;16.084;2023-02-15T02:00:24;30.63;;;19.53;;
1593;SDS011;790;47.000;16.084;2023-02-15T02:02:52;29.77;;;18.70;;
1593;SDS011;790;47.000;16.084;2023-02-15T02:05:21;28.67;;;18.87;;
1593;SDS011;790;47.000;16.084;2023-02-15T02:07:50;28.93;;;19.03;;
1593;SDS011;790;47.000;16.084;2023-02-15T02:10:21;30.53;;;18.93;;
1593;SDS011;790;47.000;16.084;2023-02-15T02:12:51;30.47;;;19.80;;
1593;SDS011;790;47.000;16.084;2023-02-15T02:15:21;27.13;;;18.97;;
1593;SDS011;790;47.000;16.084;2023-02-15T02:17:56;32.07;;;20.10;;
1593;SDS011;790;47.000;16.084;2023-02-15T02:20:40;33.27;;;20.47;;
1593;SDS011;790;47.000;16.084;2023-02-15T02:23:38;31.10;;;19.70;;
1593;SDS011;790;47.000;16.084;2023-02-15T02:26:25;31.33;;;19.47;;
1593;SDS011;790;47.000;16.084;2023-02-15T02:32:04;30.40;;;19.10;;
1593;SDS011;790;47.000;16.084;2023-02-15T02:34:51;31.77;;;19.97;;
1593;SDS011;790;47.000;16.084;2023-02-15T02:37:28;28.00;;;18.33;;
1593;SDS011;790;47.000;16.084;2023-02-15T02:40:03;33.67;;;20.73;;
1593;SDS011;790;47.000;16.084;2023-02-15T02:42:39;29.83;;;19.20;;
1593;SDS011;790;47.000;16.084;2023-02-15T02:45:08;28.87;;;17.83;;
1593;SDS011;790;47.000;16.084;2023-02-15T02:47:40;31.20;;;19.70;;
1593;SDS011;790;47.000;16.084;2023-02-15T02:50:13;31.33;;;19.13;;
1593;SDS011;790;47.000;16.084;2023-02-15T02:52:42;30.87;;;19.60;;
1593;SDS011;790;47.000;16.084;2023-02-15T02:55:13;31.07;;;19.00;;
1593;SDS011;790;47.000;16.084;2023-02-15T02:57:46;30.20;;;19.80;;
1593;SDS011;790;47.000;16.084;2023-02-15T03:00:18;32.80;;;19.70;;
1593;SDS011;790;47.000;16.084;2023-02-15T03:02:49;31.97;;;20.83;;
1593;SDS011;790;47.000;16.084;2023-02-15T03:05:23;32.50;;;21.33;;
1593;SDS011;790;47.000;16.084;2023-02-15T03:07:53;36.57;;;21.10;;
1593;SDS011;790;47.000;16.084;2023-02-15T03:10:22;29.63;;;19.80;;
1593;SDS011;790;47.000;16.084;2023-02-15T03:12:50;31.43;;;19.33;;
1593;SDS011;790;47.000;16.084;2023-02-15T03:15:19;30.07;;;18.97;;
1593;SDS011;790;47.000;16.084;2023-02-15T03:17:51;35.60;;;21.67;;
1593;SDS011;790;47.000;16.084;2023-02-15T03:20:24;33.50;;;21.23;;
1593;SDS011;790;47.000;16.084;2023-02-15T03:22:56;34.60;;;21.13;;
1593;SDS011;790;47.000;16.084;2023-02-15T03:25:30;31.37;;;21.07;;
1593;SDS011;790;47.000;16.084;2023-02-15T03:27:59;32.93;;;20.50;;
1593;SDS011;790;47.000;16.084;2023-02-15T03:30:30;35.37;;;21.83;;
1593;SDS011;790;47.000;16.084;2023-02-15T03:33:00;33.83;;;20.93;;
1593;SDS011;790;47.000;16.084;2023-02-15T03:35:32;34.53;;;20.37;;
1593;SDS011;790;47.000;16.084;2023-02-15T03:38:06;34.83;;;22.53;;
1593;SDS011;790;47.000;16.084;2023-02-15T03:40:36;38.23;;;22.53;;
1593;SDS011;790;47.000;16.084;2023-02-15T03:43:25;37.10;;;21.63;;
1593;SDS011;790;47.000;16.084;2023-02-15T03:45:57;34.87;;;21.37;;
1593;SDS011;790;47.000;16.084;2023-02-15T03:48:32;34.03;;;21.13;;
1593;SDS011;790;47.000;16.084;2023-02-15T03:51:05;31.13;;;19.97;;
1593;SDS011;790;47.000;16.084;2023-02-15T03:53:54;34.93;;;20.17;;
1593;SDS011;790;47.000;16.084;2023-02-15T03:56:22;32.17;;;21.20;;
1593;SDS011;790;47.000;16.084;2023-02-15T03:58:49;35.43;;;21.57;;
1593;SDS011;790;47.000;16.084;2023-02-15T04:01:32;31.03;;;20.93;;
1593;SDS011;790;47.000;16.084;2023-02-15T04:04:21;34.03;;;21.20;;
1593;SDS011;790;47.000;16.084;2023-02-15T04:06:51;33.80;;;20.37;;
1593;SDS011;790;47.000;16.084;2023-02-15T04:09:18;36.37;;;22.07;;
1593;SDS011;790;47.000;16.084;2023-02-15T04:12:03;32.17;;;21.07;;
1593;SDS011;790;47.000;16.084;2023-02-15T04:14:30;34.10;;;21.40;;
1593;SDS011;790;47.000;16.084;2023-02-15T04:17:15;34.70;;;21.90;;
1593;SDS011;790;47.000;16.084;2023-02-15T04:19:42;32.37;;;20.43;;
1593;SDS011;790;47.000;16.084;2023-02-15T04:22:28;33.77;;;20.67;;
1593;SDS011;790;47.000;16.084;2023-02-15T04:25:12;32.70;;;21.73;;
1593;SDS011;790;47.000;16.084;2023-02-15T04:27:40;36.27;;;21.67;;
1593;SDS011;790;47.000;16.084;2023-02-15T04:30:09;37.43;;;21.77;;
1593;SDS011;790;47.000;16.084;2023-02-15T04:32:38;34.43;;;20.53;;
1593;SDS011;790;47.000;16.084;2023-02-15T04:35:05;35.10;;;21.27;;
1593;SDS011;790;47.000;16.084;2023-02-15T04:37:34;38.20;;;21.80;;
1593;SDS011;790;47.000;16.084;2023-02-15T04:40:02;33.47;;;21.33;;
1593;SDS011;790;47.000;16.084;2023-02-15T04:42:29;37.67;;;23.03;;
1593;SDS011;790;47.000;16.084;2023-02-15T04:44:57;35.20;;;21.63;;
1593;SDS011;790;47.000;16.084;2023-02-15T04:47:24;39.50;;;23.43;;
1593;SDS011;790;47.000;16.084;2023-02-15T04:49:51;40.67;;;22.77;;
1593;SDS011;790;47.000;16.084;2023-02-15T04:52:18;37.63;;;22.67;;
1593;SDS011;790;47.000;16.084;2023-02-15T04:54:47;36.80;;;22.60;;
1593;SDS011;790;47.000;16.084;2023-02-15T04:57:14;38.33;;;22.40;;
1593;SDS011;790;47.000;16.084;2023-02-15T04:59:41;39.00;;;22.73;;
1593;SDS011;790;47.000;16.084;2023-02-15T05:02:08;33.17;;;20.40;;
1593;SDS011;790;47.000;16.084;2023-02-15T05:04:35;40.10;;;23.03;;
1593;SDS011;790;47.000;16.084;2023-02-15T05:07:02;44.60;;;22.73;;
1593;SDS011;790;47.000;16.084;2023-02-15T05:09:29;35.70;;;22.20;;
1593;SDS011;790;47.000;16.084;2023-02-15T05:11:58;40.43;;;23.87;;
1593;SDS011;790;47.000;16.084;2023-02-15T05:14:25;40.87;;;24.30;;
1593;SDS011;790;47.000;16.084;2023-02-15T05:16:52;39.37;;;23.67;;
1593;SDS011;790;47.000;16.084;2023-02-15T05:19:20;43.83;;;24.70;;
1593;SDS011;790;47.000;16.084;2023-02-15T05:21:49;43.87;;;25.00;;
1593;SDS011;790;47.000;16.084;2023-02-15T05:24:16;44.23;;;24.30;;
1593;SDS011;790;47.000;16.084;2023-02-15T05:27:02;38.50;;;23.40;;
1593;SDS011;790;47.000;16.084;2023-02-15T05:29:47;34.00;;;22.57;;
1593;SDS011;790;47.000;16.084;2023-02-15T05:32:14;42.40;;;24.93;;
1593;SDS011;790;47.000;16.084;2023-02-15T05:34:42;38.40;;;23.80;;
1593;SDS011;790;47.000;16.084;2023-02-15T05:37:09;37.37;;;22.83;;
1593;SDS011;790;47.000;16.084;2023-02-15T05:39:36;37.30;;;23.77;;
1593;SDS011;790;47.000;16.084;2023-02-15T05:42:05;39.87;;;23.93;;
1593;SDS011;790;47.000;16.084;2023-02-15T05:44:32;40.33;;;24.33;;
1593;SDS011;790;47.000;16.084;2023-02-15T05:46:59;41.77;;;25.13;;
1593;SDS011;790;47.000;16.084;2023-02-15T05:49:28;41.07;;;24.80;;
1593;SDS011;790;47.000;16.084;2023-02-15T05:51:56;39.57;;;24.97;;
1593;SDS011;790;47.000;16.084;2023-02-15T05:54:23;38.10;;;23.40;;
1593;SDS011;790;47.000;16.084;2023-02-15T05:56:51;39.57;;;24.20;;
1593;SDS011;790;47.000;16.084;2023-02-15T05:59:19;38.80;;;23.60;;
1593;SDS011;790;47.000;16.084;2023-02-15T06:01:46;39.50;;;23.83;;
1593;SDS011;790;47.000;16.084;2023-02-15T06:04:13;39.80;;;24.13;;
1593;SDS011;790;47.000;16.084;2023-02-15T06:06:41;35.67;;;22.43;;
1593;SDS011;790;47.000;16.084;2023-02-15T06:09:12;37.87;;;24.10;;
1593;SDS011;790;47.000;16.084;2023-02-15T06:11:40;40.80;;;23.10;;
1593;SDS011;790;47.000;16.084;2023-02-15T06:14:07;33.93;;;22.03;;
1593;SDS011;790;47.000;16.084;2023-02-15T06:16:35;35.37;;;22.30;;
1593;SDS011;790;47.000;16.084;2023-02-15T06:19:03;37.73;;;23.17;;
1593;SDS011;790;47.000;16.084;2023-02-15T06:21:30;34.77;;;22.87;;
1593;SDS011;790;47.000;16.084;2023-02-15T06:23:57;36.97;;;23.10;;
1593;SDS011;790;47.000;16.084;2023-02-15T06:26:24;35.30;;;22.87;;
1593;SDS011;790;47.000;16.084;2023-02-15T06:28:52;37.53;;;23.17;;
1593;SDS011;790;47.000;16.084;2023-02-15T06:31:19;40.70;;;23.70;;
1593;SDS011;790;47.000;16.084;2023-02-15T06:33:48;39.93;;;22.80;;
1593;SDS011;790;47.000;16.084;2023-02-15T06:36:15;38.40;;;23.60;;
1593;SDS011;790;47.000;16.084;2023-02-15T06:38:42;36.20;;;22.73;;
1593;SDS011;790;47.000;16.084;2023-02-15T06:41:09;38.37;;;22.93;;
1593;SDS011;790;47.000;16.084;2023-02-15T06:43:36;35.30;;;22.10;;
1593;SDS011;790;47.000;16.084;2023-02-15T06:46:04;37.13;;;24.07;;
1593;SDS011;790;47.000;16.084;2023-02-15T06:50:59;35.67;;;23.80;;
1593;SDS011;790;47.000;16.084;2023-02-15T06:53:26;39.47;;;24.67;;
1593;SDS011;790;47.000;16.084;2023-02-15T06:55:59;36.70;;;23.90;;
1593;SDS011;790;47.000;16.084;2023-02-15T06:58:31;32.87;;;21.50;;
1593;SDS011;790;47.000;16.084;2023-02-15T07:00:58;36.67;;;22.97;;
1593;SDS011;790;47.000;16.084;2023-02-15T07:03:25;41.73;;;27.17;;
1593;SDS011;790;47.000;16.084;2023-02-15T07:05:54;41.60;;;25.03;;
1593;SDS011;790;47.000;16.084;2023-02-15T07:08:23;41.50;;;25.23;;
1593;SDS011;790;47.000;16.084;2023-02-15T07:10:50;37.77;;;23.63;;
1593;SDS011;790;47.000;16.084;2023-02-15T07:13:18;40.13;;;26.70;;
1593;SDS011;790;47.000;16.084;2023-02-15T07:15:45;41.77;;;26.60;;
1593;SDS011;790;47.000;16.084;2023-02-15T07:18:13;43.70;;;28.37;;
1593;SDS011;790;47.000;16.084;2023-02-15T07:20:40;41.70;;;26.10;;
1593;SDS011;790;47.000;16.084;2023-02-15T07:23:07;39.97;;;25.27;;
1593;SDS011;790;47.000;16.084;2023-02-15T07:25:36;57.03;;;34.03;;
1593;SDS011;790;47.000;16.084;2023-02-15T07:28:03;47.93;;;31.17;;
1593;SDS011;790;47.000;16.084;2023-02-15T07:30:31;45.33;;;31.07;;
1593;SDS011;790;47.000;16.084;2023-02-15T07:32:58;48.23;;;33.23;;
1593;SDS011;790;47.000;16.084;2023-02-15T07:35:46;49.57;;;32.53;;
1593;SDS011;790;47.000;16.084;2023-02-15T07:38:14;45.90;;;31.07;;
1593;SDS011;790;47.000;16.084;2023-02-15T07:40:42;48.17;;;31.27;;
1593;SDS011;790;47.000;16.084;2023-02-15T07:43:10;50.47;;;30.23;;
1593;SDS011;790;47.000;16.084;2023-02-15T07:45:37;48.93;;;29.97;;
1593;SDS011;790;47.000;16.084;2023-02-15T07:48:05;45.67;;;27.77;;
1593;SDS011;790;47.000;16.084;2023-02-15T07:50:33;46.10;;;27.17;;
1593;SDS011;790;47.000;16.084;2023-02-15T07:53:01;47.20;;;27.50;;
1593;SDS011;790;47.000;16.084;2023-02-15T07:55:28;41.27;;;26.67;;
1593;SDS011;790;47.000;16.084;2023-02-15T07:57:57;44.23;;;26.33;;
1593;SDS011;790;47.000;16.084;2023-02-15T08:00:24;44.40;;;27.03;;
1593;SDS011;790;47.000;16.084;2023-02-15T08:02:52;45.90;;;25.83;;
1593;SDS011;790;47.000;16.084;2023-02-15T08:05:34;41.27;;;26.07;;
1593;SDS011;790;47.000;16.084;2023-02-15T08:08:01;40.07;;;25.80;;
1593;SDS011;790;47.000;16.084;2023-02-15T08:10:29;44.00;;;26.97;;
1593;SDS011;790;47.000;16.084;2023-02-15T08:13:12;46.60;;;27.17;;
1593;SDS011;790;47.000;16.084;2023-02-15T08:15:39;42.90;;;27.47;;
1593;SDS011;790;47.000;16.084;2023-02-15T08:18:06;44.87;;;28.47;;
1593;SDS011;790;47.000;16.084;2023-02-15T08:20:33;50.47;;;28.17;;
1593;SDS011;790;47.000;16.084;2023-02-15T08:23:00;44.70;;;27.53;;
1593;SDS011;790;47.000;16.084;2023-02-15T08:25:27;47.13;;;27.10;;
1593;SDS011;790;47.000;16.084;2023-02-15T08:27:55;46.77;;;27.63;;
1593;SDS011;790;47.000;16.084;2023-02-15T08:30:23;43.83;;;27.20;;
1593;SDS011;790;47.000;16.084;2023-02-15T08:32:50;49.70;;;28.87;;
1593;SDS011;790;47.000;16.084;2023-02-15T08:35:18;40.13;;;26.50;;
1593;SDS011;790;47.000;16.084;2023-02-15T08:37:45;40.97;;;26.47;;
1593;SDS011;790;47.000;16.084;2023-02-15T08:40:12;44.70;;;27.47;;
1593;SDS011;790;47.000;16.084;2023-02-15T08:42:39;45.67;;;27.33;;
1593;SDS011;790;47.000;16.084;2023-02-15T08:45:07;42.27;;;27.87;;
1593;SDS011;790;47.000;16.084;2023-02-15T08:47:36;45.60;;;27.93;;
1593;SDS011;790;47.000;16.084;2023-02-15T08:50:04;44.87;;;29.67;;
1593;SDS011;790;47.000;16.084;2023-02-15T08:52:31;43.93;;;26.90;;
1593;SDS011;790;47.000;16.084;2023-02-15T08:54:59;39.67;;;26.17;;
1593;SDS011;790;47.000;16.084;2023-02-15T08:57:26;44.63;;;27.90;;
1593;SDS011;790;47.000;16.084;2023-02-15T08:59:54;42.57;;;27.50;;
1593;SDS011;790;47.000;16.084;2023-02-15T09:02:21;47.80;;;28.93;;
1593;SDS011;790;47.000;16.084;2023-02-15T09:04:50;41.80;;;28.20;;
1593;SDS011;790;47.000;16.084;2023-02-15T09:07:17;40.60;;;26.13;;
1593;SDS011;790;47.000;16.084;2023-02-15T09:09:45;40.07;;;25.53;;
1593;SDS011;790;47.000;16.084;2023-02-15T09:12:12;35.70;;;23.90;;
1593;SDS011;790;47.000;16.084;2023-02-15T09:14:39;36.13;;;24.00;;
1593;SDS011;790;47.000;16.084;2023-02-15T09:17:07;36.20;;;24.77;;
1593;SDS011;790;47.000;16.084;2023-02-15T09:19:34;38.97;;;24.57;;
1593;SDS011;790;47.000;16.084;2023-02-15T09:22:02;41.33;;;25.53;;
1593;SDS011;790;47.000;16.084;2023-02-15T09:24:31;39.73;;;27.57;;
1593;SDS011;790;47.000;16.084;2023-02-15T09:26:59;38.93;;;26.57;;
1593;SDS011;790;47.000;16.084;2023-02-15T09:29:26;40.43;;;27.00;;
1593;SDS011;790;47.000;16.084;2023-02-15T09:31:54;43.33;;;27.73;;
1593;SDS011;790;47.000;16.084;2023-02-15T09:34:21;37.03;;;25.43;;
1593;SDS011;790;47.000;16.084;2023-02-15T09:36:49;35.10;;;25.07;;
1593;SDS011;790;47.000;16.084;2023-02-15T09:39:19;35.63;;;25.30;;
1593;SDS011;790;47.000;16.084;2023-02-15T09:42:02;37.40;;;26.63;;
1593;SDS011;790;47.000;16.084;2023-02-15T09:47:56;34.13;;;23.17;;
1593;SDS011;790;47.000;16.084;2023-02-15T09:50:45;34.37;;;24.03;;
1593;SDS011;790;47.000;16.084;2023-02-15T09:53:28;35.20;;;24.73;;
1593;SDS011;790;47.000;16.084;2023-02-15T09:56:05;37.90;;;24.93;;
1593;SDS011;790;47.000;16.084;2023-02-15T09:58:42;38.23;;;24.97;;
1593;SDS011;790;47.000;16.084;2023-02-15T10:01:33;38.07;;;24.83;;
1593;SDS011;790;47.000;16.084;2023-02-15T10:04:18;34.43;;;24.23;;
1593;SDS011;790;47.000;16.084;2023-02-15T10:07:01;35.20;;;24.33;;
1593;SDS011;790;47.000;16.084;2023-02-15T10:09:49;32.83;;;23.43;;
1593;SDS011;790;47.000;16.084;2023-02-15T10:12:36;40.93;;;26.33;;
1593;SDS011;790;47.000;16.084;2023-02-15T10:15:18;34.90;;;24.97;;
1593;SDS011;790;47.000;16.084;2023-02-15T10:17:57;35.30;;;24.63;;
1593;SDS011;790;47.000;16.084;2023-02-15T10:20:42;37.97;;;25.10;;
1593;SDS011;790;47.000;16.084;2023-02-15T10:23:26;38.87;;;26.57;;
1593;SDS011;790;47.000;16.084;2023-02-15T10:26:15;39.47;;;26.97;;
1593;SDS011;790;47.000;16.084;2023-02-15T10:28:47;39.87;;;26.07;;
1593;SDS011;790;47.000;16.084;2023-02-15T10:31:24;38.93;;;26.57;;
1593;SDS011;790;47.000;16.084;2023-02-15T10:34:12;37.70;;;26.03;;
1593;SDS011;790;47.000;16.084;2023-02-15T10:36:50;34.77;;;25.03;;
1593;SDS011;790;47.000;16.084;2023-02-15T10:39:37;28.43;;;20.47;;
1593;SDS011;790;47.000;16.084;2023-02-15T10:42:14;33.07;;;22.47;;
1593;SDS011;790;47.000;16.084;2023-02-15T10:44:51;32.13;;;21.30;;
1593;SDS011;790;47.000;16.084;2023-02-15T10:53:20;38.00;;;24.97;;
1593;SDS011;790;47.000;16.084;2023-02-15T10:56:03;32.87;;;24.90;;
1593;SDS011;790;47.000;16.084;2023-02-15T10:58:39;31.43;;;23.80;;
1593;SDS011;790;47.000;16.084;2023-02-15T11:01:21;37.20;;;24.40;;
1593;SDS011;790;47.000;16.084;2023-02-15T11:03:57;34.80;;;23.30;;
1593;SDS011;790;47.000;16.084;2023-02-15T11:06:36;38.03;;;25.40;;
1593;SDS011;790;47.000;16.084;2023-02-15T11:09:08;36.43;;;24.40;;
1593;SDS011;790;47.000;16.084;2023-02-15T11:11:41;39.87;;;25.33;;
1593;SDS011;790;47.000;16.084;2023-02-15T11:14:10;39.23;;;24.50;;
1593;SDS011;790;47.000;16.084;2023-02-15T11:16:45;36.93;;;25.30;;
1593;SDS011;790;47.000;16.084;2023-02-15T11:19:16;33.30;;;23.67;;
1593;SDS011;790;47.000;16.084;2023-02-15T11:21:49;33.57;;;22.83;;
1593;SDS011;790;47.000;16.084;2023-02-15T11:24:19;35.53;;;24.63;;
1593;SDS011;790;47.000;16.084;2023-02-15T11:26:49;34.10;;;23.67;;
1593;SDS011;790;47.000;16.084;2023-02-15T11:29:18;37.77;;;24.97;;
1593;SDS011;790;47.000;16.084;2023-02-15T11:31:53;34.03;;;22.80;;
1593;SDS011;790;47.000;16.084;2023-02-15T11:34:23;37.40;;;24.97;;
1593;SDS011;790;47.000;16.084;2023-02-15T11:36:54;39.73;;;25.00;;
1593;SDS011;790;47.000;16.084;2023-02-15T11:39:25;34.90;;;24.40;;
1593;SDS011;790;47.000;16.084;2023-02-15T11:41:58;34.67;;;24.43;;
1593;SDS011;790;47.000;16.084;2023-02-15T11:44:30;35.27;;;25.07;;
1593;SDS011;790;47.000;16.084;2023-02-15T11:47:02;35.70;;;23.20;;
1593;SDS011;790;47.000;16.084;2023-02-15T11:49:34;35.80;;;24.70;;
1593;SDS011;790;47.000;16.084;2023-02-15T11:52:04;35.40;;;23.70;;
1593;SDS011;790;47.000;16.084;2023-02-15T11:54:34;33.57;;;23.30;;
1593;SDS011;790;47.000;16.084;2023-02-15T11:57:10;37.73;;;23.87;;
1593;SDS011;790;47.000;16.084;2023-02-15T11:59:42;34.50;;;22.53;;
1593;SDS011;790;47.000;16.084;2023-02-15T12:02:16;32.03;;;23.53;;
1593;SDS011;790;47.000;16.084;2023-02-15T12:04:46;31.97;;;23.23;;
1593;SDS011;790;47.000;16.084;2023-02-15T12:07:21;29.83;;;22.60;;
1593;SDS011;790;47.000;16.084;2023-02-15T12:09:52;45.37;;;33.27;;
1593;SDS011;790;47.000;16.084;2023-02-15T12:12:25;36.70;;;25.07;;
1593;SDS011;790;47.000;16.084;2023-02-15T12:14:54;34.97;;;24.13;;
1593;SDS011;790;47.000;16.084;2023-02-15T12:17:24;36.23;;;24.20;;
1593;SDS011;790;47.000;16.084;2023-02-15T12:19:54;33.40;;;24.20;;
1593;SDS011;790;47.000;16.084;2023-02-15T12:22:23;35.60;;;22.83;;
1593;SDS011;790;47.000;16.084;2023-02-15T12:24:52;31.60;;;22.27;;
1593;SDS011;790;47.000;16.084;2023-02-15T12:27:23;36.60;;;22.83;;
1593;SDS011;790;47.000;16.084;2023-02-15T12:29:53;35.87;;;24.40;;
1593;SDS011;790;47.000;16.084;2023-02-15T12:32:26;33.10;;;23.77;;
1593;SDS011;790;47.000;16.084;2023-02-15T12:34:59;34.27;;;24.07;;
1593;SDS011;790;47.000;16.084;2023-02-15T12:37:29;39.20;;;24.07;;
1593;SDS011;790;47.000;16.084;2023-02-15T12:40:00;35.00;;;23.80;;
1593;SDS011;790;47.000;16.084;2023-02-15T12:42:44;37.57;;;24.57;;
1593;SDS011;790;47.000;16.084;2023-02-15T12:45:24;38.50;;;25.50;;
1593;SDS011;790;47.000;16.084;2023-02-15T12:50:44;34.83;;;25.00;;
1593;SDS011;790;47.000;16.084;2023-02-15T12:53:15;33.20;;;23.97;;
1593;SDS011;790;47.000;16.084;2023-02-15T12:55:52;33.83;;;23.70;;
1593;SDS011;790;47.000;16.084;2023-02-15T12:58:21;30.17;;;21.77;;
1593;SDS011;790;47.000;16.084;2023-02-15T13:03:53;32.13;;;23.27;;
1593;SDS011;790;47.000;16.084;2023-02-15T13:06:24;33.13;;;22.93;;
1593;SDS011;790;47.000;16.084;2023-02-15T13:08:53;34.97;;;23.67;;
1593;SDS011;790;47.000;16.084;2023-02-15T13:11:22;40.07;;;26.10;;
1593;SDS011;790;47.000;16.084;2023-02-15T13:13:55;37.57;;;26.90;;
1593;SDS011;790;47.000;16.084;2023-02-15T13:16:25;34.33;;;24.57;;
1593;SDS011;790;47.000;16.084;2023-02-15T13:18:58;37.03;;;24.63;;
1593;SDS011;790;47.000;16.084;2023-02-15T13:21:32;32.07;;;22.23;;
1593;SDS011;790;47.000;16.084;2023-02-15T13:24:05;35.73;;;24.40;;
1593;SDS011;790;47.000;16.084;2023-02-15T13:26:34;33.13;;;23.60;;
1593;SDS011;790;47.000;16.084;2023-02-15T13:29:04;35.13;;;24.20;;
1593;SDS011;790;47.000;16.084;2023-02-15T13:31:34;33.93;;;24.27;;
1593;SDS011;790;47.000;16.084;2023-02-15T13:34:08;33.00;;;23.20;;
1593;SDS011;790;47.000;16.084;2023-02-15T13:36:40;33.77;;;24.43;;
1593;SDS011;790;47.000;16.084;2023-02-15T13:39:17;32.43;;;22.87;;
1593;SDS011;790;47.000;16.084;2023-02-15T13:41:52;35.23;;;23.60;;
1593;SDS011;790;47.000;16.084;2023-02-15T13:44:28;35.33;;;24.83;;
1593;SDS011;790;47.000;16.084;2023-02-15T13:47:21;30.97;;;22.10;;
1593;SDS011;790;47.000;16.084;2023-02-15T13:50:00;31.73;;;22.43;;
1593;SDS011;790;47.000;16.084;2023-02-15T13:52:48;34.50;;;23.73;;
1593;SDS011;790;47.000;16.084;2023-02-15T13:55:30;29.80;;;22.50;;
1593;SDS011;790;47.000;16.084;2023-02-15T14:01:08;32.93;;;23.97;;
1593;SDS011;790;47.000;16.084;2023-02-15T14:03:49;35.57;;;24.87;;
1593;SDS011;790;47.000;16.084;2023-02-15T14:09:18;34.23;;;23.57;;
1593;SDS011;790;47.000;16.084;2023-02-15T14:11:54;35.53;;;24.10;;
1593;SDS011;790;47.000;16.084;2023-02-15T14:14:39;32.90;;;23.27;;
1593;SDS011;790;47.000;16.084;2023-02-15T14:17:28;35.07;;;23.80;;
1593;SDS011;790;47.000;16.084;2023-02-15T14:20:01;31.77;;;23.33;;
1593;SDS011;790;47.000;16.084;2023-02-15T14:22:38;34.43;;;22.83;;
1593;SDS011;790;47.000;16.084;2023-02-15T14:25:16;33.57;;;23.00;;
1593;SDS011;790;47.000;16.084;2023-02-15T14:27:54;36.43;;;24.93;;
1593;SDS011;790;47.000;16.084;2023-02-15T14:30:31;34.53;;;24.50;;
1593;SDS011;790;47.000;16.084;2023-02-15T14:33:01;35.47;;;24.67;;
1593;SDS011;790;47.000;16.084;2023-02-15T14:35:34;35.57;;;24.77;;
1593;SDS011;790;47.000;16.084;2023-02-15T14:38:04;34.03;;;22.83;;
1593;SDS011;790;47.000;16.084;2023-02-15T14:40:40;34.03;;;24.23;;
1593;SDS011;790;47.000;16.084;2023-02-15T14:43:40;35.00;;;22.73;;
1593;SDS011;790;47.000;16.084;2023-02-15T14:46:19;32.17;;;22.77;;
1593;SDS011;790;47.000;16.084;2023-02-15T14:48:53;31.77;;;23.10;;
1593;SDS011;790;47.000;16.084;2023-02-15T14:57:26;35.63;;;24.10;;
1593;SDS011;790;47.000;16.084;2023-02-15T14:59:57;33.70;;;22.83;;
1593;SDS011;790;47.000;16.084;2023-02-15T15:02:28;33.13;;;24.23;;
1593;SDS011;790;47.000;16.084;2023-02-15T15:05:06;42.30;;;25.97;;
1593;SDS011;790;47.000;16.084;2023-02-15T15:07:36;34.70;;;24.40;;
1593;SDS011;790;47.000;16.084;2023-02-15T15:19:04;31.50;;;23.53;;
1593;SDS011;790;47.000;16.084;2023-02-15T15:21:51;35.93;;;24.10;;
1593;SDS011;790;47.000;16.084;2023-02-15T15:42:36;34.03;;;23.33;;
1593;SDS011;790;47.000;16.084;2023-02-15T15:45:45;32.63;;;21.80;;
1593;SDS011;790;47.000;16.084;2023-02-15T15:48:26;39.50;;;24.93;;
1593;SDS011;790;47.000;16.084;2023-02-15T15:50:59;34.83;;;23.37;;
1593;SDS011;790;47.000;16.084;2023-02-15T15:53:32;35.60;;;24.93;;
1593;SDS011;790;47.000;16.084;2023-02-15T15:56:05;36.57;;;23.87;;
1593;SDS011;790;47.000;16.084;2023-02-15T15:58:37;35.20;;;22.83;;
1593;SDS011;790;47.000;16.084;2023-02-15T16:01:10;34.23;;;22.23;;
1593;SDS011;790;47.000;16.084;2023-02-15T16:03:47;34.37;;;23.53;;
1593;SDS011;790;47.000;16.084;2023-02-15T16:06:25;32.37;;;21.47;;
1593;SDS011;790;47.000;16.084;2023-02-15T16:08:57;34.13;;;22.67;;
1593;SDS011;790;47.000;16.084;2023-02-15T16:11:36;36.57;;;23.37;;
1593;SDS011;790;47.000;16.084;2023-02-15T16:14:10;38.10;;;23.20;;
1593;SDS011;790;47.000;16.084;2023-02-15T16:16:39;34.47;;;21.77;;